sensor_id;sensor_type;location;lat;lon;timestamp;P1;durP1;ratioP1;P2;durP2;ratioP2
70487;SDS011;57976;48.174;16.370;2023-08-12T01:10:17;6.60;;;3.20;;
70487;SDS011;57976;48.174;16.370;2023-08-12T01:12:26;5.90;;;3.10;;
70487;SDS011;57976;48.174;16.370;2023-08-12T01:14:37;6.50;;;3.20;;
70487;SDS011;57976;48.174;16.370;2023-08-12T01:16:49;5.90;;;3.00;;
70487;SDS011;57976;48.174;16.370;2023-08-12T01:19:00;5.90;;;3.00;;
70487;SDS011;57976;48.174;16.370;2023-08-12T01:21:10;6.30;;;3.00;;
70487;SDS011;57976;48.174;16.370;2023-08-12T01:23:19;7.20;;;3.10;;
70487;SDS011;57976;48.174;16.370;2023-08-12T01:25:24;6.80;;;3.40;;
70487;SDS011;57976;48.174;16.370;2023-08-12T01:27:34;6.30;;;3.00;;
70487;SDS011;57976;48.174;16.370;2023-08-12T01:29:41;6.30;;;3.10;;
70487;SDS011;57976;48.174;16.370;2023-08-12T01:31:51;6.10;;;2.90;;
70487;SDS011;57976;48.174;16.370;2023-08-12T01:34:06;6.00;;;3.30;;
70487;SDS011;57976;48.174;16.370;2023-08-12T01:36:16;6.10;;;3.10;;
70487;SDS011;57976;48.174;16.370;2023-08-12T01:38:22;5.90;;;3.20;;
70487;SDS011;57976;48.174;16.370;2023-08-12T01:40:30;7.40;;;3.30;;
70487;SDS011;57976;48.174;16.370;2023-08-12T01:42:37;6.00;;;3.10;;
70487;SDS011;57976;48.174;16.370;2023-08-12T01:44:44;6.10;;;3.00;;
70487;SDS011;57976;48.174;16.370;2023-08-12T01:46:50;6.20;;;3.10;;
70487;SDS011;57976;48.174;16.370;2023-08-12T01:48:57;6.80;;;3.10;;
70487;SDS011;57976;48.174;16.370;2023-08-12T01:51:03;6.90;;;3.20;;
70487;SDS011;57976;48.174;16.370;2023-08-12T01:53:10;6.30;;;3.10;;
70487;SDS011;57976;48.174;16.370;2023-08-12T01:55:18;6.90;;;3.20;;
70487;SDS011;57976;48.174;16.370;2023-08-12T01:57:23;6.10;;;3.00;;
70487;SDS011;57976;48.174;16.370;2023-08-12T01:59:28;6.40;;;3.30;;
70487;SDS011;57976;48.174;16.370;2023-08-12T02:01:33;6.70;;;3.40;;
70487;SDS011;57976;48.174;16.370;2023-08-12T02:03:38;6.60;;;3.20;;
70487;SDS011;57976;48.174;16.370;2023-08-12T02:05:50;7.80;;;3.50;;
70487;SDS011;57976;48.174;16.370;2023-08-12T02:07:57;6.30;;;3.30;;
70487;SDS011;57976;48.174;16.370;2023-08-12T02:10:05;6.30;;;3.50;;
70487;SDS011;57976;48.174;16.370;2023-08-12T02:12:14;6.50;;;3.40;;
70487;SDS011;57976;48.174;16.370;2023-08-12T02:14:19;6.10;;;3.20;;
70487;SDS011;57976;48.174;16.370;2023-08-12T02:16:25;6.70;;;3.20;;
70487;SDS011;57976;48.174;16.370;2023-08-12T02:18:32;6.90;;;3.60;;
70487;SDS011;57976;48.174;16.370;2023-08-12T02:20:37;6.50;;;3.30;;
70487;SDS011;57976;48.174;16.370;2023-08-12T02:22:43;6.10;;;3.40;;
70487;SDS011;57976;48.174;16.370;2023-08-12T02:24:48;5.80;;;3.20;;
70487;SDS011;57976;48.174;16.370;2023-08-12T02:26:56;6.40;;;3.20;;
70487;SDS011;57976;48.174;16.370;2023-08-12T02:29:01;8.70;;;4.50;;
70487;SDS011;57976;48.174;16.370;2023-08-12T02:31:07;10.70;;;6.60;;
70487;SDS011;57976;48.174;16.370;2023-08-12T02:33:12;7.20;;;4.00;;
70487;SDS011;57976;48.174;16.370;2023-08-12T02:35:20;6.60;;;3.60;;
70487;SDS011;57976;48.174;16.370;2023-08-12T02:37:25;6.70;;;3.60;;
70487;SDS011;57976;48.174;16.370;2023-08-12T02:39:33;6.70;;;3.60;;
70487;SDS011;57976;48.174;16.370;2023-08-12T02:41:38;6.80;;;3.80;;
70487;SDS011;57976;48.174;16.370;2023-08-12T02:43:43;7.20;;;3.60;;
70487;SDS011;57976;48.174;16.370;2023-08-12T02:45:49;7.40;;;3.50;;
70487;SDS011;57976;48.174;16.370;2023-08-12T02:47:55;6.70;;;3.50;;
70487;SDS011;57976;48.174;16.370;2023-08-12T02:50:01;6.60;;;3.60;;
70487;SDS011;57976;48.174;16.370;2023-08-12T02:52:10;8.00;;;3.60;;
70487;SDS011;57976;48.174;16.370;2023-08-12T02:54:18;7.30;;;3.60;;
70487;SDS011;57976;48.174;16.370;2023-08-12T02:56:23;9.10;;;3.80;;
70487;SDS011;57976;48.174;16.370;2023-08-12T02:58:28;6.60;;;3.50;;
70487;SDS011;57976;48.174;16.370;2023-08-12T03:00:36;6.60;;;3.50;;
70487;SDS011;57976;48.174;16.370;2023-08-12T03:02:43;8.80;;;3.90;;
70487;SDS011;57976;48.174;16.370;2023-08-12T03:04:49;8.80;;;3.90;;
70487;SDS011;57976;48.174;16.370;2023-08-12T03:06:54;6.90;;;3.80;;
70487;SDS011;57976;48.174;16.370;2023-08-12T03:09:00;6.30;;;3.60;;
70487;SDS011;57976;48.174;16.370;2023-08-12T03:11:06;8.50;;;3.80;;
70487;SDS011;57976;48.174;16.370;2023-08-12T03:13:12;8.90;;;3.80;;
70487;SDS011;57976;48.174;16.370;2023-08-12T03:15:18;7.70;;;4.20;;
70487;SDS011;57976;48.174;16.370;2023-08-12T03:17:23;7.00;;;3.80;;
70487;SDS011;57976;48.174;16.370;2023-08-12T03:19:34;7.20;;;4.10;;
70487;SDS011;57976;48.174;16.370;2023-08-12T03:21:39;7.30;;;4.00;;
70487;SDS011;57976;48.174;16.370;2023-08-12T03:23:44;8.20;;;4.10;;
70487;SDS011;57976;48.174;16.370;2023-08-12T03:25:57;9.00;;;4.10;;
70487;SDS011;57976;48.174;16.370;2023-08-12T03:28:03;7.60;;;4.10;;
70487;SDS011;57976;48.174;16.370;2023-08-12T03:30:10;7.50;;;4.30;;
70487;SDS011;57976;48.174;16.370;2023-08-12T03:32:17;9.60;;;4.30;;
70487;SDS011;57976;48.174;16.370;2023-08-12T03:34:22;9.00;;;4.10;;
70487;SDS011;57976;48.174;16.370;2023-08-12T03:36:29;7.20;;;4.20;;
70487;SDS011;57976;48.174;16.370;2023-08-12T03:38:34;6.90;;;3.90;;
70487;SDS011;57976;48.174;16.370;2023-08-12T03:40:41;7.20;;;3.70;;
70487;SDS011;57976;48.174;16.370;2023-08-12T03:42:47;6.90;;;4.00;;
70487;SDS011;57976;48.174;16.370;2023-08-12T03:44:52;8.30;;;4.20;;
70487;SDS011;57976;48.174;16.370;2023-08-12T03:46:58;8.40;;;4.40;;
70487;SDS011;57976;48.174;16.370;2023-08-12T03:49:04;7.00;;;3.90;;
70487;SDS011;57976;48.174;16.370;2023-08-12T03:51:09;7.90;;;4.10;;
70487;SDS011;57976;48.174;16.370;2023-08-12T03:53:14;7.70;;;3.70;;
70487;SDS011;57976;48.174;16.370;2023-08-12T03:55:19;6.90;;;4.10;;
70487;SDS011;57976;48.174;16.370;2023-08-12T03:57:24;7.90;;;3.70;;
70487;SDS011;57976;48.174;16.370;2023-08-12T03:59:31;7.40;;;4.10;;
70487;SDS011;57976;48.174;16.370;2023-08-12T04:01:36;12.90;;;7.80;;
70487;SDS011;57976;48.174;16.370;2023-08-12T04:03:41;10.10;;;5.10;;
70487;SDS011;57976;48.174;16.370;2023-08-12T04:05:50;8.10;;;4.20;;
70487;SDS011;57976;48.174;16.370;2023-08-12T04:07:56;8.50;;;4.60;;
70487;SDS011;57976;48.174;16.370;2023-08-12T04:10:01;7.80;;;4.10;;
70487;SDS011;57976;48.174;16.370;2023-08-12T04:12:07;7.40;;;3.70;;
70487;SDS011;57976;48.174;16.370;2023-08-12T04:14:14;8.70;;;4.00;;
70487;SDS011;57976;48.174;16.370;2023-08-12T04:16:19;7.40;;;4.50;;
70487;SDS011;57976;48.174;16.370;2023-08-12T04:18:24;7.70;;;4.30;;
70487;SDS011;57976;48.174;16.370;2023-08-12T04:20:30;8.20;;;4.70;;
70487;SDS011;57976;48.174;16.370;2023-08-12T04:22:35;7.80;;;4.00;;
70487;SDS011;57976;48.174;16.370;2023-08-12T04:24:41;8.20;;;4.10;;
70487;SDS011;57976;48.174;16.370;2023-08-12T04:26:46;7.10;;;3.70;;
70487;SDS011;57976;48.174;16.370;2023-08-12T04:28:52;8.20;;;4.10;;
70487;SDS011;57976;48.174;16.370;2023-08-12T04:30:59;7.70;;;4.10;;
70487;SDS011;57976;48.174;16.370;2023-08-12T04:33:04;8.50;;;4.80;;
70487;SDS011;57976;48.174;16.370;2023-08-12T04:35:16;8.10;;;4.90;;
70487;SDS011;57976;48.174;16.370;2023-08-12T04:37:22;7.00;;;4.20;;
70487;SDS011;57976;48.174;16.370;2023-08-12T04:39:28;7.50;;;4.00;;
70487;SDS011;57976;48.174;16.370;2023-08-12T04:41:34;7.90;;;4.10;;
70487;SDS011;57976;48.174;16.370;2023-08-12T04:43:39;7.30;;;4.00;;
70487;SDS011;57976;48.174;16.370;2023-08-12T04:45:46;7.10;;;3.90;;
70487;SDS011;57976;48.174;16.370;2023-08-12T04:47:53;6.80;;;4.00;;
70487;SDS011;57976;48.174;16.370;2023-08-12T04:49:59;6.20;;;3.60;;
70487;SDS011;57976;48.174;16.370;2023-08-12T04:52:08;6.80;;;3.50;;
70487;SDS011;57976;48.174;16.370;2023-08-12T04:54:17;7.40;;;3.70;;
70487;SDS011;57976;48.174;16.370;2023-08-12T04:56:22;11.40;;;6.30;;
70487;SDS011;57976;48.174;16.370;2023-08-12T04:58:30;7.10;;;3.80;;
70487;SDS011;57976;48.174;16.370;2023-08-12T05:00:36;7.70;;;3.90;;
70487;SDS011;57976;48.174;16.370;2023-08-12T05:02:41;8.30;;;4.00;;
70487;SDS011;57976;48.174;16.370;2023-08-12T05:04:48;7.60;;;3.80;;
70487;SDS011;57976;48.174;16.370;2023-08-12T05:06:57;7.00;;;3.80;;
70487;SDS011;57976;48.174;16.370;2023-08-12T05:09:03;7.10;;;3.60;;
70487;SDS011;57976;48.174;16.370;2023-08-12T05:11:08;8.10;;;3.70;;
70487;SDS011;57976;48.174;16.370;2023-08-12T05:13:13;6.50;;;3.70;;
70487;SDS011;57976;48.174;16.370;2023-08-12T05:15:19;6.70;;;3.80;;
70487;SDS011;57976;48.174;16.370;2023-08-12T05:17:24;7.10;;;3.90;;
70487;SDS011;57976;48.174;16.370;2023-08-12T05:19:30;6.90;;;4.00;;
70487;SDS011;57976;48.174;16.370;2023-08-12T05:21:35;7.80;;;4.20;;
70487;SDS011;57976;48.174;16.370;2023-08-12T05:23:41;7.80;;;4.70;;
70487;SDS011;57976;48.174;16.370;2023-08-12T05:25:46;8.40;;;4.30;;
70487;SDS011;57976;48.174;16.370;2023-08-12T05:28:09;9.20;;;5.50;;
70487;SDS011;57976;48.174;16.370;2023-08-12T05:30:14;10.40;;;6.90;;
70487;SDS011;57976;48.174;16.370;2023-08-12T05:32:19;14.10;;;8.70;;
70487;SDS011;57976;48.174;16.370;2023-08-12T05:34:25;12.80;;;8.50;;
70487;SDS011;57976;48.174;16.370;2023-08-12T05:36:30;15.80;;;10.00;;
70487;SDS011;57976;48.174;16.370;2023-08-12T05:38:37;15.20;;;9.70;;
70487;SDS011;57976;48.174;16.370;2023-08-12T05:40:42;13.70;;;8.90;;
70487;SDS011;57976;48.174;16.370;2023-08-12T05:42:47;11.30;;;7.30;;
70487;SDS011;57976;48.174;16.370;2023-08-12T05:44:52;21.30;;;14.90;;
70487;SDS011;57976;48.174;16.370;2023-08-12T05:46:57;13.00;;;7.80;;
70487;SDS011;57976;48.174;16.370;2023-08-12T05:49:02;9.60;;;5.50;;
70487;SDS011;57976;48.174;16.370;2023-08-12T05:51:08;10.20;;;6.30;;
70487;SDS011;57976;48.174;16.370;2023-08-12T05:53:13;10.00;;;6.20;;
70487;SDS011;57976;48.174;16.370;2023-08-12T05:55:18;10.20;;;6.70;;
70487;SDS011;57976;48.174;16.370;2023-08-12T05:57:24;10.00;;;6.20;;
70487;SDS011;57976;48.174;16.370;2023-08-12T05:59:31;10.30;;;6.30;;
70487;SDS011;57976;48.174;16.370;2023-08-12T06:01:37;10.20;;;6.10;;
70487;SDS011;57976;48.174;16.370;2023-08-12T06:03:42;11.70;;;6.40;;
70487;SDS011;57976;48.174;16.370;2023-08-12T06:05:47;10.60;;;6.30;;
70487;SDS011;57976;48.174;16.370;2023-08-12T06:07:52;9.50;;;6.10;;
70487;SDS011;57976;48.174;16.370;2023-08-12T06:09:58;11.80;;;6.50;;
70487;SDS011;57976;48.174;16.370;2023-08-12T06:12:05;10.30;;;6.50;;
70487;SDS011;57976;48.174;16.370;2023-08-12T06:14:10;10.10;;;6.60;;
70487;SDS011;57976;48.174;16.370;2023-08-12T06:16:16;11.30;;;6.50;;
70487;SDS011;57976;48.174;16.370;2023-08-12T06:18:21;9.60;;;6.80;;
70487;SDS011;57976;48.174;16.370;2023-08-12T06:20:27;10.90;;;6.50;;
70487;SDS011;57976;48.174;16.370;2023-08-12T06:22:32;12.20;;;6.60;;
70487;SDS011;57976;48.174;16.370;2023-08-12T06:24:38;9.50;;;6.80;;
70487;SDS011;57976;48.174;16.370;2023-08-12T06:26:47;11.00;;;6.70;;
70487;SDS011;57976;48.174;16.370;2023-08-12T06:28:53;10.80;;;6.90;;
70487;SDS011;57976;48.174;16.370;2023-08-12T06:30:59;12.50;;;6.80;;
70487;SDS011;57976;48.174;16.370;2023-08-12T06:33:05;10.80;;;6.80;;
70487;SDS011;57976;48.174;16.370;2023-08-12T06:35:10;12.10;;;7.10;;
70487;SDS011;57976;48.174;16.370;2023-08-12T06:37:16;11.10;;;6.70;;
70487;SDS011;57976;48.174;16.370;2023-08-12T06:39:21;9.80;;;6.70;;
70487;SDS011;57976;48.174;16.370;2023-08-12T06:41:27;10.20;;;6.90;;
70487;SDS011;57976;48.174;16.370;2023-08-12T06:43:33;10.70;;;7.50;;
70487;SDS011;57976;48.174;16.370;2023-08-12T06:45:38;11.20;;;7.70;;
70487;SDS011;57976;48.174;16.370;2023-08-12T06:47:46;10.00;;;7.10;;
70487;SDS011;57976;48.174;16.370;2023-08-12T06:49:51;10.30;;;6.80;;
70487;SDS011;57976;48.174;16.370;2023-08-12T06:51:57;9.20;;;6.30;;
70487;SDS011;57976;48.174;16.370;2023-08-12T06:54:05;9.50;;;6.60;;
70487;SDS011;57976;48.174;16.370;2023-08-12T06:56:14;11.80;;;6.80;;
70487;SDS011;57976;48.174;16.370;2023-08-12T06:58:19;9.60;;;6.30;;
70487;SDS011;57976;48.174;16.370;2023-08-12T07:00:25;9.40;;;6.00;;
70487;SDS011;57976;48.174;16.370;2023-08-12T07:02:30;10.50;;;5.80;;
70487;SDS011;57976;48.174;16.370;2023-08-12T07:04:39;8.20;;;5.10;;
70487;SDS011;57976;48.174;16.370;2023-08-12T07:06:44;9.90;;;5.50;;
70487;SDS011;57976;48.174;16.370;2023-08-12T07:08:52;7.70;;;4.60;;
70487;SDS011;57976;48.174;16.370;2023-08-12T07:10:57;9.70;;;6.00;;
70487;SDS011;57976;48.174;16.370;2023-08-12T07:13:04;8.00;;;5.40;;
70487;SDS011;57976;48.174;16.370;2023-08-12T07:15:10;8.10;;;4.90;;
70487;SDS011;57976;48.174;16.370;2023-08-12T07:17:15;9.80;;;5.40;;
70487;SDS011;57976;48.174;16.370;2023-08-12T07:19:21;7.30;;;4.80;;
70487;SDS011;57976;48.174;16.370;2023-08-12T07:21:26;6.90;;;4.40;;
70487;SDS011;57976;48.174;16.370;2023-08-12T07:23:31;7.10;;;4.10;;
70487;SDS011;57976;48.174;16.370;2023-08-12T07:25:37;7.40;;;4.20;;
70487;SDS011;57976;48.174;16.370;2023-08-12T07:27:45;5.90;;;3.90;;
70487;SDS011;57976;48.174;16.370;2023-08-12T07:29:51;7.10;;;3.90;;
70487;SDS011;57976;48.174;16.370;2023-08-12T07:31:57;6.00;;;3.50;;
70487;SDS011;57976;48.174;16.370;2023-08-12T07:34:02;6.40;;;3.90;;
70487;SDS011;57976;48.174;16.370;2023-08-12T07:36:08;6.70;;;3.90;;
70487;SDS011;57976;48.174;16.370;2023-08-12T07:38:13;7.80;;;4.00;;
70487;SDS011;57976;48.174;16.370;2023-08-12T07:40:21;6.90;;;4.00;;
70487;SDS011;57976;48.174;16.370;2023-08-12T07:42:26;6.40;;;3.90;;
70487;SDS011;57976;48.174;16.370;2023-08-12T07:44:31;7.50;;;4.10;;
70487;SDS011;57976;48.174;16.370;2023-08-12T07:46:39;7.20;;;4.10;;
70487;SDS011;57976;48.174;16.370;2023-08-12T07:48:44;6.30;;;4.00;;
70487;SDS011;57976;48.174;16.370;2023-08-12T07:50:55;6.70;;;4.00;;
70487;SDS011;57976;48.174;16.370;2023-08-12T07:53:01;6.50;;;3.80;;
70487;SDS011;57976;48.174;16.370;2023-08-12T07:55:09;6.70;;;4.10;;
70487;SDS011;57976;48.174;16.370;2023-08-12T07:57:15;7.20;;;4.20;;
70487;SDS011;57976;48.174;16.370;2023-08-12T07:59:20;6.90;;;4.20;;
70487;SDS011;57976;48.174;16.370;2023-08-12T08:01:29;6.50;;;4.10;;
70487;SDS011;57976;48.174;16.370;2023-08-12T08:03:34;6.60;;;4.20;;
70487;SDS011;57976;48.174;16.370;2023-08-12T08:05:41;6.40;;;4.00;;
70487;SDS011;57976;48.174;16.370;2023-08-12T08:07:46;7.60;;;4.10;;
70487;SDS011;57976;48.174;16.370;2023-08-12T08:09:52;6.80;;;4.20;;
70487;SDS011;57976;48.174;16.370;2023-08-12T08:11:59;7.00;;;4.20;;
70487;SDS011;57976;48.174;16.370;2023-08-12T08:14:04;7.50;;;4.00;;
70487;SDS011;57976;48.174;16.370;2023-08-12T08:16:10;6.60;;;4.20;;
70487;SDS011;57976;48.174;16.370;2023-08-12T08:18:17;6.20;;;4.10;;
70487;SDS011;57976;48.174;16.370;2023-08-12T08:20:23;6.50;;;4.20;;
70487;SDS011;57976;48.174;16.370;2023-08-12T08:22:28;6.80;;;4.00;;
70487;SDS011;57976;48.174;16.370;2023-08-12T08:24:34;6.40;;;4.10;;
70487;SDS011;57976;48.174;16.370;2023-08-12T08:26:40;6.00;;;3.80;;
70487;SDS011;57976;48.174;16.370;2023-08-12T08:28:44;7.00;;;4.30;;
70487;SDS011;57976;48.174;16.370;2023-08-12T08:30:50;7.70;;;4.50;;
70487;SDS011;57976;48.174;16.370;2023-08-12T08:32:55;6.80;;;4.70;;
70487;SDS011;57976;48.174;16.370;2023-08-12T08:35:01;6.50;;;4.30;;
70487;SDS011;57976;48.174;16.370;2023-08-12T08:37:06;6.60;;;4.50;;
70487;SDS011;57976;48.174;16.370;2023-08-12T08:39:13;7.30;;;4.60;;
70487;SDS011;57976;48.174;16.370;2023-08-12T08:41:18;6.50;;;4.40;;
70487;SDS011;57976;48.174;16.370;2023-08-12T08:43:24;6.30;;;4.20;;
70487;SDS011;57976;48.174;16.370;2023-08-12T08:45:31;8.50;;;4.50;;
70487;SDS011;57976;48.174;16.370;2023-08-12T08:47:37;6.80;;;4.60;;
70487;SDS011;57976;48.174;16.370;2023-08-12T08:49:47;7.00;;;4.30;;
70487;SDS011;57976;48.174;16.370;2023-08-12T08:51:53;6.70;;;4.60;;
70487;SDS011;57976;48.174;16.370;2023-08-12T08:53:59;7.00;;;4.80;;
70487;SDS011;57976;48.174;16.370;2023-08-12T08:56:06;8.50;;;4.90;;
70487;SDS011;57976;48.174;16.370;2023-08-12T08:58:17;7.90;;;4.80;;
70487;SDS011;57976;48.174;16.370;2023-08-12T09:00:28;7.00;;;4.60;;
70487;SDS011;57976;48.174;16.370;2023-08-12T09:02:33;7.20;;;4.50;;
70487;SDS011;57976;48.174;16.370;2023-08-12T09:04:40;7.90;;;4.80;;
70487;SDS011;57976;48.174;16.370;2023-08-12T09:06:47;7.60;;;4.80;;
70487;SDS011;57976;48.174;16.370;2023-08-12T09:08:53;8.10;;;4.50;;
70487;SDS011;57976;48.174;16.370;2023-08-12T09:10:59;7.10;;;4.80;;
70487;SDS011;57976;48.174;16.370;2023-08-12T09:13:05;8.00;;;4.60;;
70487;SDS011;57976;48.174;16.370;2023-08-12T09:15:11;7.70;;;4.70;;
70487;SDS011;57976;48.174;16.370;2023-08-12T09:17:19;7.20;;;4.30;;
70487;SDS011;57976;48.174;16.370;2023-08-12T09:19:24;7.40;;;4.60;;
70487;SDS011;57976;48.174;16.370;2023-08-12T09:21:30;7.00;;;4.60;;
70487;SDS011;57976;48.174;16.370;2023-08-12T09:23:36;7.90;;;4.40;;
70487;SDS011;57976;48.174;16.370;2023-08-12T09:25:43;8.60;;;4.40;;
70487;SDS011;57976;48.174;16.370;2023-08-12T09:27:50;6.70;;;4.30;;
70487;SDS011;57976;48.174;16.370;2023-08-12T09:29:57;7.60;;;4.00;;
70487;SDS011;57976;48.174;16.370;2023-08-12T09:32:08;6.70;;;4.20;;
70487;SDS011;57976;48.174;16.370;2023-08-12T09:34:16;6.90;;;4.10;;
70487;SDS011;57976;48.174;16.370;2023-08-12T09:36:25;7.00;;;4.10;;
70487;SDS011;57976;48.174;16.370;2023-08-12T09:38:33;6.10;;;3.90;;
70487;SDS011;57976;48.174;16.370;2023-08-12T09:40:38;7.90;;;3.90;;
70487;SDS011;57976;48.174;16.370;2023-08-12T09:42:47;7.00;;;4.00;;
70487;SDS011;57976;48.174;16.370;2023-08-12T09:44:53;6.40;;;3.90;;
70487;SDS011;57976;48.174;16.370;2023-08-12T09:46:59;5.70;;;3.60;;
70487;SDS011;57976;48.174;16.370;2023-08-12T09:49:04;6.60;;;3.90;;
70487;SDS011;57976;48.174;16.370;2023-08-12T09:51:11;6.30;;;3.80;;
70487;SDS011;57976;48.174;16.370;2023-08-12T09:53:16;6.60;;;3.80;;
70487;SDS011;57976;48.174;16.370;2023-08-12T09:55:22;6.30;;;3.90;;
70487;SDS011;57976;48.174;16.370;2023-08-12T09:57:28;7.10;;;3.90;;
70487;SDS011;57976;48.174;16.370;2023-08-12T09:59:36;6.20;;;3.80;;
70487;SDS011;57976;48.174;16.370;2023-08-12T10:01:44;6.60;;;4.00;;
70487;SDS011;57976;48.174;16.370;2023-08-12T10:03:50;6.70;;;3.90;;
70487;SDS011;57976;48.174;16.370;2023-08-12T10:08:19;5.50;;;3.40;;
70487;SDS011;57976;48.174;16.370;2023-08-12T10:10:24;7.00;;;3.80;;
70487;SDS011;57976;48.174;16.370;2023-08-12T10:12:30;6.90;;;3.80;;
70487;SDS011;57976;48.174;16.370;2023-08-12T10:14:37;7.30;;;3.90;;
70487;SDS011;57976;48.174;16.370;2023-08-12T10:16:45;6.50;;;3.60;;
70487;SDS011;57976;48.174;16.370;2023-08-12T10:18:50;6.70;;;3.80;;
70487;SDS011;57976;48.174;16.370;2023-08-12T10:20:58;6.70;;;3.70;;
70487;SDS011;57976;48.174;16.370;2023-08-12T10:23:08;6.90;;;3.70;;
70487;SDS011;57976;48.174;16.370;2023-08-12T10:25:17;6.70;;;3.50;;
70487;SDS011;57976;48.174;16.370;2023-08-12T10:27:23;6.90;;;3.50;;
70487;SDS011;57976;48.174;16.370;2023-08-12T10:29:29;6.90;;;3.20;;
70487;SDS011;57976;48.174;16.370;2023-08-12T10:31:35;6.80;;;3.70;;
70487;SDS011;57976;48.174;16.370;2023-08-12T10:33:41;5.70;;;3.10;;
70487;SDS011;57976;48.174;16.370;2023-08-12T10:35:48;5.80;;;3.40;;
70487;SDS011;57976;48.174;16.370;2023-08-12T10:37:56;6.70;;;3.30;;
70487;SDS011;57976;48.174;16.370;2023-08-12T10:40:04;5.30;;;3.10;;
70487;SDS011;57976;48.174;16.370;2023-08-12T10:44:51;5.40;;;3.30;;
70487;SDS011;57976;48.174;16.370;2023-08-12T10:46:56;5.90;;;3.50;;
70487;SDS011;57976;48.174;16.370;2023-08-12T10:49:06;6.20;;;3.50;;
70487;SDS011;57976;48.174;16.370;2023-08-12T10:51:12;7.30;;;3.20;;
70487;SDS011;57976;48.174;16.370;2023-08-12T10:53:26;5.70;;;3.30;;
70487;SDS011;57976;48.174;16.370;2023-08-12T10:55:36;5.90;;;3.50;;
70487;SDS011;57976;48.174;16.370;2023-08-12T10:57:44;6.80;;;3.60;;
70487;SDS011;57976;48.174;16.370;2023-08-12T10:59:53;5.30;;;3.20;;
70487;SDS011;57976;48.174;16.370;2023-08-12T11:02:06;5.40;;;3.30;;
70487;SDS011;57976;48.174;16.370;2023-08-12T11:04:18;6.40;;;3.20;;
70487;SDS011;57976;48.174;16.370;2023-08-12T11:06:24;5.40;;;3.20;;
70487;SDS011;57976;48.174;16.370;2023-08-12T11:08:31;7.00;;;3.50;;
70487;SDS011;57976;48.174;16.370;2023-08-12T11:10:39;6.20;;;3.30;;
70487;SDS011;57976;48.174;16.370;2023-08-12T11:12:47;5.40;;;2.90;;
70487;SDS011;57976;48.174;16.370;2023-08-12T11:14:59;5.00;;;3.10;;
70487;SDS011;57976;48.174;16.370;2023-08-12T11:17:12;7.20;;;3.20;;
70487;SDS011;57976;48.174;16.370;2023-08-12T11:19:18;5.80;;;3.30;;
70487;SDS011;57976;48.174;16.370;2023-08-12T11:21:24;5.80;;;3.10;;
70487;SDS011;57976;48.174;16.370;2023-08-12T11:23:30;5.20;;;3.00;;
70487;SDS011;57976;48.174;16.370;2023-08-12T11:25:37;5.70;;;2.90;;
70487;SDS011;57976;48.174;16.370;2023-08-12T11:27:45;6.10;;;2.90;;
70487;SDS011;57976;48.174;16.370;2023-08-12T11:29:51;6.10;;;2.80;;
70487;SDS011;57976;48.174;16.370;2023-08-12T11:31:56;5.50;;;3.00;;
70487;SDS011;57976;48.174;16.370;2023-08-12T11:34:02;5.20;;;2.80;;
70487;SDS011;57976;48.174;16.370;2023-08-12T11:36:09;5.50;;;2.90;;
70487;SDS011;57976;48.174;16.370;2023-08-12T11:38:15;5.10;;;2.80;;
70487;SDS011;57976;48.174;16.370;2023-08-12T11:40:21;4.80;;;2.70;;
70487;SDS011;57976;48.174;16.370;2023-08-12T11:42:28;6.60;;;2.80;;
70487;SDS011;57976;48.174;16.370;2023-08-12T11:44:33;5.20;;;2.50;;
70487;SDS011;57976;48.174;16.370;2023-08-12T11:46:39;5.40;;;2.60;;
70487;SDS011;57976;48.174;16.370;2023-08-12T11:48:44;5.30;;;2.70;;
70487;SDS011;57976;48.174;16.370;2023-08-12T11:50:53;5.10;;;2.90;;
70487;SDS011;57976;48.174;16.370;2023-08-12T11:53:00;6.60;;;3.00;;
70487;SDS011;57976;48.174;16.370;2023-08-12T11:55:06;5.50;;;2.60;;
70487;SDS011;57976;48.174;16.370;2023-08-12T11:57:13;6.30;;;2.80;;
70487;SDS011;57976;48.174;16.370;2023-08-12T11:59:18;5.60;;;2.40;;
70487;SDS011;57976;48.174;16.370;2023-08-12T12:01:26;5.30;;;2.60;;
70487;SDS011;57976;48.174;16.370;2023-08-12T12:03:31;5.50;;;2.70;;
70487;SDS011;57976;48.174;16.370;2023-08-12T12:05:37;5.00;;;2.60;;
70487;SDS011;57976;48.174;16.370;2023-08-12T12:07:43;4.80;;;2.40;;
70487;SDS011;57976;48.174;16.370;2023-08-12T12:09:49;5.40;;;3.10;;
70487;SDS011;57976;48.174;16.370;2023-08-12T12:11:59;6.00;;;2.80;;
70487;SDS011;57976;48.174;16.370;2023-08-12T12:14:04;5.10;;;2.90;;
70487;SDS011;57976;48.174;16.370;2023-08-12T12:16:11;4.80;;;2.00;;
70487;SDS011;57976;48.174;16.370;2023-08-12T12:18:18;4.90;;;2.20;;
70487;SDS011;57976;48.174;16.370;2023-08-12T12:20:23;4.30;;;2.00;;
70487;SDS011;57976;48.174;16.370;2023-08-12T12:22:28;5.00;;;2.20;;
70487;SDS011;57976;48.174;16.370;2023-08-12T12:24:44;4.50;;;2.30;;
70487;SDS011;57976;48.174;16.370;2023-08-12T12:26:50;4.60;;;2.10;;
70487;SDS011;57976;48.174;16.370;2023-08-12T12:28:56;4.70;;;2.30;;
70487;SDS011;57976;48.174;16.370;2023-08-12T12:31:01;4.70;;;2.20;;
70487;SDS011;57976;48.174;16.370;2023-08-12T12:33:07;4.60;;;2.00;;
70487;SDS011;57976;48.174;16.370;2023-08-12T12:35:12;5.70;;;2.30;;
70487;SDS011;57976;48.174;16.370;2023-08-12T12:37:18;5.80;;;2.20;;
70487;SDS011;57976;48.174;16.370;2023-08-12T12:39:24;5.70;;;2.20;;
70487;SDS011;57976;48.174;16.370;2023-08-12T12:41:30;5.00;;;2.10;;
70487;SDS011;57976;48.174;16.370;2023-08-12T12:43:35;5.40;;;2.80;;
70487;SDS011;57976;48.174;16.370;2023-08-12T12:45:41;5.70;;;2.50;;
70487;SDS011;57976;48.174;16.370;2023-08-12T12:47:46;5.10;;;2.50;;
70487;SDS011;57976;48.174;16.370;2023-08-12T12:49:52;5.10;;;2.30;;
70487;SDS011;57976;48.174;16.370;2023-08-12T12:51:57;4.50;;;2.30;;
70487;SDS011;57976;48.174;16.370;2023-08-12T12:54:02;4.90;;;2.20;;
70487;SDS011;57976;48.174;16.370;2023-08-12T12:56:08;5.80;;;2.50;;
70487;SDS011;57976;48.174;16.370;2023-08-12T12:58:13;5.30;;;2.10;;
70487;SDS011;57976;48.174;16.370;2023-08-12T13:00:18;4.00;;;1.90;;
70487;SDS011;57976;48.174;16.370;2023-08-12T13:02:24;4.50;;;2.20;;
70487;SDS011;57976;48.174;16.370;2023-08-12T13:04:32;6.30;;;2.60;;
70487;SDS011;57976;48.174;16.370;2023-08-12T13:06:37;4.50;;;2.10;;
70487;SDS011;57976;48.174;16.370;2023-08-12T13:08:42;4.60;;;2.20;;
70487;SDS011;57976;48.174;16.370;2023-08-12T13:10:48;4.40;;;2.30;;
70487;SDS011;57976;48.174;16.370;2023-08-12T13:12:53;4.40;;;2.30;;
70487;SDS011;57976;48.174;16.370;2023-08-12T13:14:59;4.70;;;2.40;;
70487;SDS011;57976;48.174;16.370;2023-08-12T13:17:05;5.10;;;2.20;;
70487;SDS011;57976;48.174;16.370;2023-08-12T13:19:10;4.60;;;2.30;;
70487;SDS011;57976;48.174;16.370;2023-08-12T13:21:15;4.40;;;2.00;;
70487;SDS011;57976;48.174;16.370;2023-08-12T13:23:21;4.40;;;2.00;;
70487;SDS011;57976;48.174;16.370;2023-08-12T13:25:27;5.20;;;2.20;;
70487;SDS011;57976;48.174;16.370;2023-08-12T13:27:33;6.50;;;2.40;;
70487;SDS011;57976;48.174;16.370;2023-08-12T13:29:38;4.80;;;2.30;;
70487;SDS011;57976;48.174;16.370;2023-08-12T13:31:43;4.20;;;1.80;;
70487;SDS011;57976;48.174;16.370;2023-08-12T13:33:49;4.40;;;1.90;;
70487;SDS011;57976;48.174;16.370;2023-08-12T13:35:55;6.00;;;2.60;;
70487;SDS011;57976;48.174;16.370;2023-08-12T13:38:00;4.60;;;2.10;;
70487;SDS011;57976;48.174;16.370;2023-08-12T13:40:07;4.70;;;2.00;;
70487;SDS011;57976;48.174;16.370;2023-08-12T13:42:14;5.70;;;2.30;;
70487;SDS011;57976;48.174;16.370;2023-08-12T13:44:19;4.90;;;2.20;;